sensor_id;sensor_type;location;lat;lon;timestamp;pressure;altitude;pressure_sealevel;temperature;humidity
9229;BME280;4649;42.644;23.284;2022-11-25T02:20:51;92749.41;;;6.09;68.42
9229;BME280;4649;42.644;23.284;2022-11-25T02:23:54;92607.59;;;5.14;67.61
9229;BME280;4649;42.644;23.284;2022-11-25T05:42:41;92925.25;;;6.08;70.36
9229;BME280;4649;42.644;23.284;2022-11-25T05:45:12;92890.31;;;5.94;70.25
9229;BME280;4649;42.644;23.284;2022-11-25T05:47:43;93033.50;;;6.92;70.85
9229;BME280;4649;42.644;23.284;2022-11-25T05:50:11;93035.69;;;7.08;68.82
9229;BME280;4649;42.644;23.284;2022-11-25T06:03:17;93047.78;;;10.41;57.98
9229;BME280;4649;42.644;23.284;2022-11-25T06:05:56;92972.28;;;10.60;52.97
9229;BME280;4649;42.644;23.284;2022-11-25T06:09:15;92887.19;;;10.39;51.97
9229;BME280;4649;42.644;23.284;2022-11-25T06:12:00;92939.06;;;11.54;48.87
9229;BME280;4649;42.644;23.284;2022-11-25T06:14:47;92958.56;;;11.98;47.06
9229;BME280;4649;42.644;23.284;2022-11-25T06:17:54;92888.16;;;10.58;47.90
9229;BME280;4649;42.644;23.284;2022-11-25T07:58:23;93076.25;;;21.21;28.84
9229;BME280;4649;42.644;23.284;2022-11-25T08:00:54;93134.75;;;21.29;27.24
9229;BME280;4649;42.644;23.284;2022-11-25T08:03:25;93139.03;;;22.10;27.39
9229;BME280;4649;42.644;23.284;2022-11-25T08:05:53;93068.31;;;22.80;24.92
9229;BME280;4649;42.644;23.284;2022-11-25T08:08:21;93109.28;;;23.18;24.23
9229;BME280;4649;42.644;23.284;2022-11-25T08:10:51;93147.25;;;23.60;24.97
9229;BME280;4649;42.644;23.284;2022-11-25T08:13:19;93141.47;;;23.23;24.06
9229;BME280;4649;42.644;23.284;2022-11-25T08:15:50;93139.25;;;23.38;23.47
9229;BME280;4649;42.644;23.284;2022-11-25T08:18:17;93099.13;;;23.20;24.39
9229;BME280;4649;42.644;23.284;2022-11-25T08:20:45;93156.78;;;23.33;23.44
9229;BME280;4649;42.644;23.284;2022-11-25T08:23:12;93153.47;;;25.41;21.97
9229;BME280;4649;42.644;23.284;2022-11-25T08:25:42;93155.41;;;26.07;20.36
9229;BME280;4649;42.644;23.284;2022-11-25T08:28:09;93098.00;;;25.79;20.96
9229;BME280;4649;42.644;23.284;2022-11-25T08:30:38;93124.38;;;26.29;20.20
9229;BME280;4649;42.644;23.284;2022-11-25T08:33:05;93103.56;;;26.70;19.25
9229;BME280;4649;42.644;23.284;2022-11-25T08:35:32;93153.91;;;27.80;18.96
9229;BME280;4649;42.644;23.284;2022-11-25T08:38:03;93163.44;;;27.98;18.47
9229;BME280;4649;42.644;23.284;2022-11-25T08:40:30;93057.34;;;26.23;19.70
9229;BME280;4649;42.644;23.284;2022-11-25T08:42:57;93142.34;;;26.89;19.61
9229;BME280;4649;42.644;23.284;2022-11-25T08:45:24;93155.03;;;26.71;19.17
9229;BME280;4649;42.644;23.284;2022-11-25T08:47:53;93098.78;;;26.31;19.59
9229;BME280;4649;42.644;23.284;2022-11-25T08:50:20;93148.44;;;26.06;20.02
9229;BME280;4649;42.644;23.284;2022-11-25T08:52:49;93148.81;;;27.65;19.26
9229;BME280;4649;42.644;23.284;2022-11-25T08:55:16;93149.50;;;27.98;17.81
9229;BME280;4649;42.644;23.284;2022-11-25T08:57:43;93065.38;;;27.65;18.67
9229;BME280;4649;42.644;23.284;2022-11-25T09:00:11;93145.91;;;28.18;17.94
9229;BME280;4649;42.644;23.284;2022-11-25T09:02:38;93099.06;;;26.86;18.63
9229;BME280;4649;42.644;23.284;2022-11-25T09:05:09;93029.31;;;26.70;18.97
9229;BME280;4649;42.644;23.284;2022-11-25T09:07:37;93148.63;;;27.84;18.72
9229;BME280;4649;42.644;23.284;2022-11-25T09:10:06;93153.97;;;28.58;17.66
9229;BME280;4649;42.644;23.284;2022-11-25T09:12:33;93144.25;;;27.81;17.85
9229;BME280;4649;42.644;23.284;2022-11-25T09:15:01;93107.94;;;26.94;18.60
9229;BME280;4649;42.644;23.284;2022-11-25T09:17:30;93082.09;;;27.56;18.29
9229;BME280;4649;42.644;23.284;2022-11-25T09:19:58;93152.03;;;27.94;18.37
9229;BME280;4649;42.644;23.284;2022-11-25T09:22:27;93155.88;;;27.89;18.13
9229;BME280;4649;42.644;23.284;2022-11-25T09:24:54;93128.84;;;26.74;19.04
9229;BME280;4649;42.644;23.284;2022-11-25T09:27:25;93162.63;;;27.21;19.21
9229;BME280;4649;42.644;23.284;2022-11-25T09:29:54;93120.44;;;27.46;18.94
9229;BME280;4649;42.644;23.284;2022-11-25T09:32:21;93108.50;;;26.81;19.26
9229;BME280;4649;42.644;23.284;2022-11-25T09:34:48;93157.94;;;26.33;19.89
9229;BME280;4649;42.644;23.284;2022-11-25T09:37:15;93058.00;;;25.14;19.94
9229;BME280;4649;42.644;23.284;2022-11-25T09:39:44;93139.22;;;25.17;20.75
9229;BME280;4649;42.644;23.284;2022-11-25T09:42:21;93137.16;;;26.13;19.84
9229;BME280;4649;42.644;23.284;2022-11-25T09:45:16;93149.59;;;26.03;20.12
9229;BME280;4649;42.644;23.284;2022-11-25T09:48:13;93066.84;;;25.41;20.25
9229;BME280;4649;42.644;23.284;2022-11-25T09:50:53;93107.13;;;24.31;21.51
9229;BME280;4649;42.644;23.284;2022-11-25T09:53:38;93081.88;;;24.53;20.95
9229;BME280;4649;42.644;23.284;2022-11-25T09:56:13;93123.81;;;23.78;22.42
9229;BME280;4649;42.644;23.284;2022-11-25T09:58:47;93056.31;;;24.26;21.60
9229;BME280;4649;42.644;23.284;2022-11-25T10:01:22;93040.50;;;24.64;21.08
9229;BME280;4649;42.644;23.284;2022-11-25T10:03:57;93115.88;;;23.48;22.31
9229;BME280;4649;42.644;23.284;2022-11-25T10:06:28;93161.91;;;23.36;22.69
9229;BME280;4649;42.644;23.284;2022-11-25T10:09:01;93069.72;;;21.09;24.53
9229;BME280;4649;42.644;23.284;2022-11-25T10:18:32;93093.78;;;19.80;26.49
9229;BME280;4649;42.644;23.284;2022-11-25T10:21:44;93141.50;;;18.83;27.64
9229;BME280;4649;42.644;23.284;2022-11-25T10:25:12;93093.50;;;18.61;28.80
9229;BME280;4649;42.644;23.284;2022-11-25T10:28:19;93036.19;;;17.80;28.79
9229;BME280;4649;42.644;23.284;2022-11-25T16:36:22;93152.66;;;5.65;66.66
9229;BME280;4649;42.644;23.284;2022-11-25T17:21:32;93152.78;;;6.31;64.29
9229;BME280;4649;42.644;23.284;2022-11-25T17:24:16;93302.72;;;7.31;63.65
9229;BME280;4649;42.644;23.284;2022-11-25T17:27:02;93178.09;;;6.39;64.02
9229;BME280;4649;42.644;23.284;2022-11-25T18:04:05;93193.44;;;6.24;64.24
9229;BME280;4649;42.644;23.284;2022-11-25T18:07:03;93133.84;;;5.97;64.14
9229;BME280;4649;42.644;23.284;2022-11-25T18:09:34;93136.50;;;5.74;64.41
9229;BME280;4649;42.644;23.284;2022-11-25T18:12:11;93309.84;;;6.91;64.07
9229;BME280;4649;42.644;23.284;2022-11-25T18:14:58;93091.47;;;5.69;63.91
9229;BME280;4649;42.644;23.284;2022-11-25T18:18:12;93323.88;;;6.95;65.09
9229;BME280;4649;42.644;23.284;2022-11-25T18:21:14;93320.81;;;7.02;65.69
9229;BME280;4649;42.644;23.284;2022-11-25T18:23:55;93239.00;;;6.57;64.79
9229;BME280;4649;42.644;23.284;2022-11-25T18:26:26;93149.19;;;5.97;64.52
